createdAt,value
2018-05-04T00:01:12.778Z,2.80
2018-05-04T00:03:40.899Z,2.80
2018-05-04T00:06:09.163Z,3.20
2018-05-04T00:08:37.280Z,3.47
2018-05-04T00:11:05.378Z,2.63
2018-05-04T00:13:33.505Z,2.90
2018-05-04T00:16:01.639Z,3.43
2018-05-04T00:18:29.767Z,3.53
2018-05-04T00:20:57.880Z,4.00
2018-05-04T00:23:26.021Z,3.67
2018-05-04T00:25:54.154Z,3.50
2018-05-04T00:28:22.262Z,3.83
2018-05-04T00:30:50.389Z,3.50
2018-05-04T00:33:18.537Z,3.67
2018-05-04T00:35:46.646Z,3.27
2018-05-04T00:38:14.769Z,3.97
2018-05-04T00:40:42.908Z,3.50
2018-05-04T00:43:11.022Z,4.23
2018-05-04T00:45:39.145Z,4.03
2018-05-04T00:48:07.279Z,4.40
2018-05-04T00:50:35.417Z,4.47
2018-05-04T00:53:03.559Z,4.43
2018-05-04T00:55:31.677Z,4.17
2018-05-04T00:57:59.790Z,4.17
2018-05-04T01:00:27.891Z,4.27
2018-05-04T01:02:56.011Z,4.17
2018-05-04T01:05:24.345Z,3.70
2018-05-04T01:07:52.487Z,3.83
2018-05-04T01:10:20.604Z,4.17
2018-05-04T01:12:48.717Z,4.03
2018-05-04T01:15:16.841Z,4.60
2018-05-04T01:17:44.954Z,3.87
2018-05-04T01:20:13.092Z,4.90
2018-05-04T01:22:41.190Z,4.63
2018-05-04T01:25:09.309Z,4.43
2018-05-04T01:27:37.473Z,4.43
2018-05-04T01:30:05.595Z,4.53
2018-05-04T01:32:33.719Z,5.07
2018-05-04T01:35:01.854Z,4.97
2018-05-04T01:37:29.969Z,5.00
2018-05-04T01:39:58.095Z,4.93
2018-05-04T01:42:26.225Z,4.80
2018-05-04T01:44:54.359Z,4.90
2018-05-04T01:47:22.477Z,4.90
2018-05-04T01:49:50.599Z,5.57
2018-05-04T01:52:18.707Z,5.30
2018-05-04T01:54:46.837Z,5.20
2018-05-04T01:57:14.966Z,5.67
2018-05-04T01:59:43.092Z,5.73
2018-05-04T02:02:11.216Z,6.30
2018-05-04T02:04:39.359Z,5.40
2018-05-04T02:07:07.459Z,5.73
2018-05-04T02:09:35.566Z,6.43
2018-05-04T02:12:03.674Z,5.47
2018-05-04T02:14:31.823Z,6.27
2018-05-04T02:16:59.941Z,6.50
2018-05-04T02:19:28.051Z,6.23
2018-05-04T02:21:56.181Z,5.07
2018-05-04T02:24:24.298Z,6.20
2018-05-04T02:26:52.420Z,5.97
2018-05-04T02:29:20.545Z,6.30
2018-05-04T02:31:48.736Z,6.63
2018-05-04T02:34:16.861Z,6.33
2018-05-04T02:36:45.035Z,6.37
2018-05-04T02:39:13.157Z,6.87
2018-05-04T02:41:41.288Z,6.67
2018-05-04T02:44:09.432Z,5.90
2018-05-04T02:46:37.545Z,6.30
2018-05-04T02:49:05.659Z,6.50
2018-05-04T02:51:33.789Z,6.77
2018-05-04T02:54:01.909Z,6.77
2018-05-04T02:56:30.015Z,6.53
2018-05-04T02:58:58.147Z,7.00
2018-05-04T03:01:26.265Z,6.57
2018-05-04T03:03:54.397Z,6.93
2018-05-04T03:06:22.499Z,7.47
2018-05-04T03:08:50.638Z,7.37
2018-05-04T03:11:18.758Z,7.30
2018-05-04T03:13:46.859Z,7.40
2018-05-04T03:16:14.978Z,7.07
2018-05-04T03:18:43.121Z,7.43
2018-05-04T03:21:11.241Z,7.30
2018-05-04T03:23:39.339Z,7.70
2018-05-04T03:26:07.501Z,7.07
2018-05-04T03:28:35.634Z,7.67
2018-05-04T03:31:03.768Z,7.97
2018-05-04T03:33:31.899Z,8.17
2018-05-04T03:36:00.039Z,7.40
2018-05-04T03:38:28.136Z,8.20
2018-05-04T03:40:56.325Z,8.03
2018-05-04T03:43:24.441Z,8.67
2018-05-04T03:45:52.565Z,8.20
2018-05-04T03:48:21.521Z,7.97
2018-05-04T03:50:49.700Z,8.10
2018-05-04T03:53:17.821Z,8.67
2018-05-04T03:55:46.196Z,8.57
2018-05-04T03:58:26.000Z,8.90
2018-05-04T04:01:06.099Z,8.73
2018-05-04T04:03:46.014Z,8.60
2018-05-04T04:06:14.130Z,8.60
2018-05-04T04:08:42.272Z,8.57
2018-05-04T04:11:10.404Z,9.57
2018-05-04T04:13:38.534Z,9.00
2018-05-04T04:16:06.672Z,8.93
2018-05-04T04:18:34.829Z,8.90
2018-05-04T04:21:02.952Z,8.50
2018-05-04T04:23:31.385Z,7.73
2018-05-04T04:25:59.531Z,8.83
2018-05-04T04:28:27.683Z,8.70
2018-05-04T04:30:55.801Z,8.53
2018-05-04T04:33:23.910Z,9.90
2018-05-04T04:35:52.153Z,9.00
2018-05-04T04:38:20.367Z,8.77
2018-05-04T04:40:48.493Z,8.93
2018-05-04T04:43:16.615Z,9.00
2018-05-04T04:45:44.741Z,8.07
2018-05-04T04:48:12.861Z,8.67
2018-05-04T04:50:41.019Z,9.03
2018-05-04T04:53:09.129Z,9.17
2018-05-04T04:55:37.247Z,9.63
2018-05-04T04:58:05.407Z,9.33
2018-05-04T05:00:33.937Z,9.03
2018-05-04T05:03:05.763Z,9.20
2018-05-04T05:05:33.890Z,9.27
2018-05-04T05:08:02.014Z,9.70
2018-05-04T05:10:30.136Z,10.13
2018-05-04T05:12:58.504Z,10.40
2018-05-04T05:15:26.647Z,10.27
2018-05-04T05:17:54.765Z,9.53
2018-05-04T05:20:22.904Z,10.67
2018-05-04T05:22:51.047Z,10.60
2018-05-04T05:25:19.191Z,10.40
2018-05-04T05:27:47.319Z,9.77
2018-05-04T05:30:15.445Z,10.47
2018-05-04T05:32:43.559Z,10.87
2018-05-04T05:35:11.694Z,10.27
2018-05-04T05:37:39.815Z,10.77
2018-05-04T05:40:07.945Z,10.57
2018-05-04T05:42:36.057Z,10.73
2018-05-04T05:45:04.189Z,10.13
2018-05-04T05:47:32.314Z,10.77
2018-05-04T05:50:00.461Z,10.70
2018-05-04T05:52:28.571Z,11.93
2018-05-04T05:54:56.699Z,11.57
2018-05-04T05:57:24.818Z,11.03
2018-05-04T05:59:52.946Z,11.60
2018-05-04T06:02:21.139Z,11.33
2018-05-04T06:04:49.359Z,11.10
2018-05-04T06:07:17.575Z,11.87
2018-05-04T06:09:45.742Z,11.57
2018-05-04T06:12:13.903Z,10.83
2018-05-04T06:14:42.031Z,11.90
2018-05-04T06:17:10.152Z,11.73
2018-05-04T06:19:38.317Z,11.50
2018-05-04T06:22:06.432Z,12.90
2018-05-04T06:24:34.543Z,11.73
2018-05-04T06:27:02.692Z,12.20
2018-05-04T06:29:30.801Z,11.87
2018-05-04T06:31:58.930Z,12.50
2018-05-04T06:34:27.051Z,12.47
2018-05-04T06:36:55.237Z,12.17
2018-05-04T06:39:23.367Z,11.60
2018-05-04T06:41:51.497Z,11.83
2018-05-04T06:44:19.615Z,12.00
2018-05-04T06:46:47.727Z,11.43
2018-05-04T06:49:16.014Z,11.20
2018-05-04T06:51:44.200Z,11.63
2018-05-04T06:54:12.373Z,10.80
2018-05-04T06:56:40.576Z,11.33
2018-05-04T06:59:08.757Z,11.03
2018-05-04T07:01:36.885Z,11.00
2018-05-04T07:04:05.029Z,10.67
2018-05-04T07:06:33.163Z,11.50
2018-05-04T07:09:01.281Z,11.13
2018-05-04T07:11:29.613Z,9.97
2018-05-04T07:13:57.759Z,11.00
2018-05-04T07:16:25.884Z,11.57
2018-05-04T07:18:54.023Z,10.97
2018-05-04T07:21:22.148Z,11.20
2018-05-04T07:23:50.272Z,10.37
2018-05-04T07:26:18.433Z,11.30
2018-05-04T07:28:46.536Z,10.23
2018-05-04T07:31:14.650Z,9.90
2018-05-04T07:33:42.777Z,10.53
2018-05-04T07:36:10.905Z,10.70
2018-05-04T07:38:39.073Z,9.37
2018-05-04T07:41:07.492Z,9.00
2018-05-04T07:43:35.596Z,9.43
2018-05-04T07:46:03.710Z,8.40
2018-05-04T07:48:31.869Z,8.37
2018-05-04T07:50:59.964Z,9.33
2018-05-04T07:53:28.076Z,7.77
2018-05-04T07:55:56.208Z,7.90
2018-05-04T07:58:24.328Z,7.97
2018-05-04T08:00:52.457Z,7.47
2018-05-04T08:03:20.607Z,8.10
2018-05-04T08:05:48.716Z,8.07
2018-05-04T08:08:16.818Z,7.90
2018-05-04T08:10:44.982Z,8.00
2018-05-04T08:13:13.094Z,8.47
2018-05-04T08:15:41.257Z,7.67
2018-05-04T08:18:09.393Z,7.33
2018-05-04T08:20:37.513Z,7.90
2018-05-04T08:23:05.629Z,8.10
2018-05-04T08:25:33.782Z,7.97
2018-05-04T08:28:01.910Z,7.67
2018-05-04T08:30:30.025Z,7.10
2018-05-04T08:32:58.162Z,7.00
2018-05-04T08:35:26.295Z,7.43
2018-05-04T08:37:54.413Z,8.03
2018-05-04T08:40:22.549Z,7.17
2018-05-04T08:42:50.745Z,6.90
2018-05-04T08:45:18.805Z,6.30
2018-05-04T08:47:46.930Z,5.77
2018-05-04T08:50:15.053Z,5.50
2018-05-04T08:52:43.147Z,6.00
2018-05-04T08:55:15.435Z,6.10
2018-05-04T08:57:43.547Z,7.07
2018-05-04T09:00:11.649Z,6.70
2018-05-04T09:02:39.787Z,5.57
2018-05-04T09:05:08.159Z,4.90
2018-05-04T09:07:36.164Z,4.70
2018-05-04T09:10:04.282Z,5.73
2018-05-04T09:12:32.396Z,4.77
2018-05-04T09:15:00.544Z,5.27
2018-05-04T09:17:28.719Z,6.20
2018-05-04T09:19:56.833Z,5.20
2018-05-04T09:22:24.934Z,4.93
2018-05-04T09:24:53.054Z,5.47
2018-05-04T09:27:21.157Z,5.90
2018-05-04T09:29:49.281Z,4.90
2018-05-04T09:32:17.413Z,4.63
2018-05-04T09:34:45.533Z,5.30
2018-05-04T09:37:13.685Z,5.20
2018-05-04T09:39:45.427Z,5.00
2018-05-04T09:42:13.538Z,5.10
2018-05-04T09:44:41.639Z,4.47
2018-05-04T09:47:09.769Z,4.47
2018-05-04T09:49:37.909Z,5.00
2018-05-04T09:52:06.039Z,5.10
2018-05-04T09:54:34.155Z,4.20
2018-05-04T09:57:02.254Z,4.60
2018-05-04T09:59:30.376Z,4.50
2018-05-04T10:01:58.558Z,4.27
2018-05-04T10:04:26.700Z,4.73
2018-05-04T10:06:54.782Z,5.00
2018-05-04T10:09:22.921Z,5.07
2018-05-04T10:11:51.033Z,4.70
2018-05-04T10:14:19.127Z,4.80
2018-05-04T10:16:47.282Z,4.27
2018-05-04T10:19:15.391Z,4.80
2018-05-04T10:21:43.495Z,4.13
2018-05-04T10:24:11.816Z,4.40
2018-05-04T10:26:39.943Z,5.33
2018-05-04T10:29:08.063Z,4.53
2018-05-04T10:31:36.162Z,4.63
2018-05-04T10:34:04.304Z,3.90
2018-05-04T10:36:32.402Z,4.13
2018-05-04T10:39:00.644Z,4.30
2018-05-04T10:41:28.677Z,4.23
2018-05-04T10:43:56.779Z,4.37
2018-05-04T10:46:24.932Z,5.00
2018-05-04T10:48:53.043Z,4.43
2018-05-04T10:51:21.175Z,4.63
2018-05-04T10:53:49.298Z,4.93
2018-05-04T10:56:17.413Z,4.77
2018-05-04T10:58:45.548Z,4.53
2018-05-04T11:01:13.674Z,4.50
2018-05-04T11:03:41.820Z,4.50
2018-05-04T11:06:09.954Z,4.20
2018-05-04T11:08:38.090Z,4.80
2018-05-04T11:11:06.216Z,4.27
2018-05-04T11:13:34.333Z,4.60
2018-05-04T11:16:02.454Z,4.37
2018-05-04T11:18:30.592Z,4.70
2018-05-04T11:20:58.696Z,4.47
2018-05-04T11:23:26.839Z,5.00
2018-05-04T11:25:54.973Z,4.50
2018-05-04T11:28:23.085Z,5.27
2018-05-04T11:30:51.214Z,5.50
2018-05-04T11:33:19.298Z,4.93
2018-05-04T11:35:47.404Z,5.43
2018-05-04T11:38:15.525Z,5.60
2018-05-04T11:40:43.664Z,5.70
2018-05-04T11:43:11.833Z,5.10
2018-05-04T11:45:39.962Z,5.23
2018-05-04T11:48:08.101Z,4.40
2018-05-04T11:50:36.226Z,4.70
2018-05-04T11:53:04.353Z,5.60
2018-05-04T11:55:32.483Z,5.50
2018-05-04T11:58:00.612Z,4.60
2018-05-04T12:00:28.734Z,5.63
2018-05-04T12:02:56.862Z,5.43
2018-05-04T12:05:25.033Z,5.77
2018-05-04T12:07:53.192Z,5.47
2018-05-04T12:10:21.305Z,4.63
2018-05-04T12:12:49.417Z,5.63
2018-05-04T12:15:17.548Z,5.40
2018-05-04T12:17:45.700Z,4.60
2018-05-04T12:20:13.826Z,6.07
2018-05-04T12:22:41.972Z,5.17
2018-05-04T12:25:10.115Z,5.00
2018-05-04T12:27:38.273Z,4.80
2018-05-04T12:30:06.456Z,5.00
2018-05-04T12:32:34.591Z,4.60
2018-05-04T12:35:02.850Z,5.17
2018-05-04T12:37:30.986Z,4.90
2018-05-04T12:39:59.090Z,5.47
2018-05-04T12:42:27.232Z,6.20
2018-05-04T12:44:55.360Z,4.60
2018-05-04T12:47:23.493Z,4.70
2018-05-04T12:49:51.613Z,4.97
2018-05-04T12:52:19.738Z,5.57
2018-05-04T12:54:47.871Z,5.40
2018-05-04T12:57:15.989Z,5.30
2018-05-04T12:59:44.113Z,4.73
2018-05-04T13:02:12.247Z,5.47
2018-05-04T13:04:40.370Z,6.07
2018-05-04T13:07:08.494Z,5.57
2018-05-04T13:09:36.624Z,4.90
2018-05-04T13:12:04.764Z,4.50
2018-05-04T13:14:32.871Z,4.93
2018-05-04T13:17:00.993Z,4.53
2018-05-04T13:19:29.109Z,4.63
2018-05-04T13:21:57.231Z,4.77
2018-05-04T13:24:27.703Z,5.23
2018-05-04T13:26:55.828Z,4.83
2018-05-04T13:29:24.012Z,4.00
2018-05-04T13:31:52.074Z,4.60
2018-05-04T13:34:20.203Z,4.53
2018-05-04T13:36:48.333Z,4.30
2018-05-04T13:39:16.434Z,4.37
2018-05-04T13:41:44.536Z,4.53
2018-05-04T13:44:12.665Z,4.47
2018-05-04T13:46:40.769Z,3.90
2018-05-04T13:49:08.991Z,5.00
2018-05-04T13:51:37.212Z,4.33
2018-05-04T13:54:05.257Z,4.53
2018-05-04T13:56:33.378Z,4.97
2018-05-04T13:59:01.540Z,5.07
2018-05-04T14:01:29.676Z,4.63
2018-05-04T14:03:57.895Z,4.37
2018-05-04T14:06:26.312Z,5.33
2018-05-04T14:08:54.440Z,4.30
2018-05-04T14:11:22.567Z,5.17
2018-05-04T14:13:50.686Z,4.60
2018-05-04T14:16:18.932Z,4.70
2018-05-04T14:18:47.142Z,4.73
2018-05-04T14:21:15.379Z,5.00
2018-05-04T14:23:43.480Z,4.63
2018-05-04T14:26:11.603Z,4.37
2018-05-04T14:28:39.759Z,4.63
2018-05-04T14:31:07.969Z,3.80
2018-05-04T14:33:36.073Z,4.53
2018-05-04T14:36:04.421Z,4.40
2018-05-04T14:38:32.552Z,4.33
2018-05-04T14:41:00.650Z,3.90
2018-05-04T14:43:28.842Z,4.77
2018-05-04T14:46:00.146Z,4.40
2018-05-04T14:48:28.320Z,4.57
2018-05-04T14:51:00.264Z,4.30
2018-05-04T14:53:28.448Z,4.17
2018-05-04T14:55:56.595Z,3.90
2018-05-04T14:58:24.945Z,4.50
2018-05-04T15:00:53.050Z,4.40
2018-05-04T15:03:21.160Z,4.70
2018-05-04T15:05:49.310Z,4.17
2018-05-04T15:08:17.420Z,4.40
2018-05-04T15:10:45.582Z,4.80
2018-05-04T15:13:13.717Z,4.50
2018-05-04T15:15:41.852Z,4.23
2018-05-04T15:18:09.981Z,4.70
2018-05-04T15:20:38.309Z,4.80
2018-05-04T15:23:06.438Z,5.30
2018-05-04T15:25:34.557Z,5.37
2018-05-04T15:28:02.696Z,5.73
2018-05-04T15:30:30.794Z,4.90
2018-05-04T15:32:58.899Z,4.20
2018-05-04T15:35:27.007Z,5.80
2018-05-04T15:37:55.124Z,5.83
2018-05-04T15:40:23.311Z,5.80
2018-05-04T15:42:51.401Z,5.30
2018-05-04T15:45:19.535Z,5.07
2018-05-04T15:47:47.645Z,5.17
2018-05-04T15:50:21.632Z,4.10
2018-05-04T15:52:49.730Z,5.40
2018-05-04T15:55:17.853Z,4.87
2018-05-04T15:57:46.061Z,5.57
2018-05-04T16:00:14.183Z,5.57
2018-05-04T16:02:42.323Z,5.47
2018-05-04T16:05:10.474Z,4.70
2018-05-04T16:07:38.580Z,6.90
2018-05-04T16:10:06.697Z,6.60
2018-05-04T16:12:34.824Z,6.30
2018-05-04T16:15:02.967Z,5.77
2018-05-04T16:17:31.170Z,5.93
2018-05-04T16:19:59.294Z,5.90
2018-05-04T16:22:27.457Z,6.37
2018-05-04T16:24:55.568Z,5.10
2018-05-04T16:27:23.695Z,5.60
2018-05-04T16:29:51.807Z,7.20
2018-05-04T16:32:19.925Z,5.50
2018-05-04T16:34:48.076Z,6.37
2018-05-04T16:37:16.195Z,6.37
2018-05-04T16:39:44.336Z,6.50
2018-05-04T16:42:12.443Z,6.53
2018-05-04T16:44:40.582Z,5.40
2018-05-04T16:47:14.241Z,4.90
2018-05-04T16:49:43.262Z,5.50
2018-05-04T16:52:11.379Z,6.13
2018-05-04T16:54:39.526Z,5.80
2018-05-04T16:57:07.655Z,6.00
2018-05-04T16:59:35.788Z,4.97
2018-05-04T17:02:03.940Z,5.67
2018-05-04T17:04:32.065Z,5.10
2018-05-04T17:07:00.183Z,5.13
2018-05-04T17:09:28.324Z,5.70
2018-05-04T17:11:56.449Z,5.40
2018-05-04T17:14:24.565Z,6.23
2018-05-04T17:16:52.749Z,4.43
2018-05-04T17:19:21.330Z,4.47
2018-05-04T17:21:49.435Z,5.60
2018-05-04T17:24:17.613Z,5.67
2018-05-04T17:26:45.825Z,5.10
2018-05-04T17:29:14.056Z,6.17
2018-05-04T17:31:42.333Z,5.37
2018-05-04T17:34:10.482Z,5.57
2018-05-04T17:36:38.649Z,5.53
2018-05-04T17:39:07.019Z,5.30
2018-05-04T17:41:35.256Z,4.80
2018-05-04T17:44:03.394Z,5.70
2018-05-04T17:46:31.510Z,5.70
2018-05-04T17:48:59.637Z,5.87
2018-05-04T17:51:27.739Z,5.50
2018-05-04T17:53:55.893Z,5.30
2018-05-04T17:56:24.011Z,6.00
2018-05-04T17:58:52.130Z,5.80
2018-05-04T18:01:20.728Z,5.47
2018-05-04T18:03:48.851Z,5.20
2018-05-04T18:06:16.950Z,5.23
2018-05-04T18:08:45.097Z,6.43
2018-05-04T18:11:13.219Z,5.63
2018-05-04T18:13:41.347Z,4.97
2018-05-04T18:16:09.485Z,5.07
2018-05-04T18:18:37.601Z,4.73
2018-05-04T18:21:05.728Z,5.30
2018-05-04T18:23:33.955Z,4.80
2018-05-04T18:26:02.059Z,5.03
2018-05-04T18:28:30.197Z,5.33
2018-05-04T18:30:58.323Z,4.80
2018-05-04T18:33:26.441Z,4.23
2018-05-04T18:35:54.538Z,4.90
2018-05-04T18:38:22.708Z,4.90
2018-05-04T18:40:50.782Z,4.90
2018-05-04T18:43:18.905Z,4.60
2018-05-04T18:45:47.046Z,5.07
2018-05-04T18:48:15.248Z,5.17
2018-05-04T18:50:43.280Z,4.50
2018-05-04T18:53:11.421Z,5.10
2018-05-04T18:55:39.566Z,5.10
2018-05-04T18:58:07.678Z,4.60
2018-05-04T19:00:35.814Z,4.57
2018-05-04T19:03:09.657Z,5.23
2018-05-04T19:05:37.771Z,5.03
2018-05-04T19:08:09.403Z,4.93
2018-05-04T19:10:37.434Z,4.97
2018-05-04T19:13:05.572Z,4.87
2018-05-04T19:15:33.689Z,5.10
2018-05-04T19:18:01.802Z,4.80
2018-05-04T19:20:30.001Z,4.87
2018-05-04T19:22:58.079Z,4.80
2018-05-04T19:25:26.212Z,4.60
2018-05-04T19:27:54.361Z,4.77
2018-05-04T19:30:22.458Z,4.60
2018-05-04T19:32:50.569Z,5.10
2018-05-04T19:35:18.705Z,5.20
2018-05-04T19:37:46.806Z,4.97
2018-05-04T19:40:14.920Z,5.37
2018-05-04T19:42:43.042Z,4.70
2018-05-04T19:45:11.152Z,4.80
2018-05-04T19:47:39.296Z,4.57
2018-05-04T19:50:07.413Z,4.23
2018-05-04T19:52:35.574Z,4.13
2018-05-04T19:55:03.652Z,4.80
2018-05-04T19:57:31.820Z,4.60
2018-05-04T19:59:59.919Z,4.30
2018-05-04T20:02:28.014Z,4.93
2018-05-04T20:04:56.145Z,4.50
2018-05-04T20:07:24.266Z,4.40
2018-05-04T20:09:52.377Z,4.07
2018-05-04T20:12:20.501Z,4.30
2018-05-04T20:14:48.621Z,4.33
2018-05-04T20:17:16.791Z,4.53
2018-05-04T20:19:44.928Z,4.27
2018-05-04T20:22:13.041Z,4.00
2018-05-04T20:24:41.180Z,4.63
2018-05-04T20:27:09.297Z,4.30
2018-05-04T20:29:37.432Z,4.40
2018-05-04T20:32:05.559Z,4.40
2018-05-04T20:34:33.699Z,4.03
2018-05-04T20:37:01.837Z,4.87
2018-05-04T20:39:29.953Z,4.20
2018-05-04T20:41:58.108Z,4.43
2018-05-04T20:44:26.248Z,4.73
2018-05-04T20:46:54.360Z,4.47
2018-05-04T20:49:22.474Z,4.33
2018-05-04T20:51:50.601Z,4.50
2018-05-04T20:54:18.740Z,4.63
2018-05-04T20:56:46.869Z,4.10
2018-05-04T20:59:14.988Z,4.57
2018-05-04T21:01:43.233Z,4.40
2018-05-04T21:04:11.361Z,4.23
2018-05-04T21:06:39.460Z,4.87
2018-05-04T21:09:11.408Z,4.87
2018-05-04T21:11:39.530Z,5.20
2018-05-04T21:14:07.663Z,5.40
2018-05-04T21:16:35.758Z,4.90
2018-05-04T21:19:03.907Z,4.83
2018-05-04T21:21:32.004Z,4.73
2018-05-04T21:24:00.117Z,5.27
2018-05-04T21:26:32.019Z,4.80
2018-05-04T21:29:00.118Z,5.30
2018-05-04T21:31:28.399Z,4.93
2018-05-04T21:33:57.649Z,5.30
2018-05-04T21:36:25.765Z,5.30
2018-05-04T21:38:53.940Z,4.63
2018-05-04T21:41:22.191Z,5.30
2018-05-04T21:43:50.343Z,5.90
2018-05-04T21:46:18.483Z,5.17
2018-05-04T21:48:46.751Z,5.53
2018-05-04T21:51:14.880Z,5.63
2018-05-04T21:53:43.021Z,4.90
2018-05-04T21:56:11.147Z,5.90
2018-05-04T21:58:39.339Z,5.67
2018-05-04T22:01:07.501Z,5.27
2018-05-04T22:03:36.573Z,5.93
2018-05-04T22:06:04.697Z,5.50
2018-05-04T22:08:32.832Z,5.63
2018-05-04T22:11:00.987Z,5.87
2018-05-04T22:13:29.110Z,6.20
2018-05-04T22:15:57.344Z,5.70
2018-05-04T22:18:25.498Z,5.90
2018-05-04T22:20:53.612Z,5.93
2018-05-04T22:23:21.725Z,5.70
2018-05-04T22:25:49.868Z,6.07
2018-05-04T22:28:17.975Z,5.90
2018-05-04T22:30:46.093Z,6.00
2018-05-04T22:33:14.207Z,6.20
2018-05-04T22:35:42.329Z,5.87
2018-05-04T22:38:10.449Z,5.70
2018-05-04T22:40:38.584Z,6.10
2018-05-04T22:43:10.311Z,5.67
2018-05-04T22:45:38.478Z,6.43
2018-05-04T22:48:06.645Z,6.27
2018-05-04T22:50:34.783Z,6.70
2018-05-04T22:53:02.927Z,6.30
2018-05-04T22:55:31.072Z,6.07
2018-05-04T22:57:59.199Z,5.80
2018-05-04T23:00:27.326Z,6.30
2018-05-04T23:02:55.446Z,5.87
2018-05-04T23:05:23.566Z,6.73
2018-05-04T23:07:51.709Z,6.27
2018-05-04T23:10:19.872Z,6.33
2018-05-04T23:12:47.992Z,6.90
2018-05-04T23:15:16.178Z,6.40
2018-05-04T23:17:44.304Z,6.63
2018-05-04T23:20:12.411Z,6.10
2018-05-04T23:22:40.576Z,6.97
2018-05-04T23:25:08.723Z,5.73
2018-05-04T23:27:36.851Z,6.93
2018-05-04T23:30:04.977Z,6.40
2018-05-04T23:32:33.109Z,6.43
2018-05-04T23:35:01.243Z,7.07
2018-05-04T23:37:29.351Z,6.57
2018-05-04T23:39:57.507Z,6.77
2018-05-04T23:42:25.625Z,6.93
2018-05-04T23:44:53.748Z,7.17
2018-05-04T23:47:21.874Z,6.93
2018-05-04T23:49:50.004Z,7.27
2018-05-04T23:52:18.121Z,6.70
2018-05-04T23:54:46.260Z,6.63
2018-05-04T23:57:14.399Z,6.63
2018-05-04T23:59:42.515Z,7.10
